createdAt,value
2018-06-08T00:01:08.535Z,21.78
2018-06-08T00:02:17.436Z,21.74
2018-06-08T00:03:26.364Z,21.68
2018-06-08T00:04:35.009Z,21.66
2018-06-08T00:05:43.662Z,21.72
2018-06-08T00:06:52.311Z,21.72
2018-06-08T00:08:00.964Z,21.69
2018-06-08T00:09:09.619Z,21.65
2018-06-08T00:10:18.527Z,21.66
2018-06-08T00:11:27.173Z,21.54
2018-06-08T00:12:35.828Z,21.6
2018-06-08T00:13:44.484Z,21.62
2018-06-08T00:14:53.127Z,21.6
2018-06-08T00:16:01.778Z,21.5
2018-06-08T00:17:10.426Z,21.63
2018-06-08T00:18:19.614Z,21.62
2018-06-08T00:19:28.271Z,21.56
2018-06-08T00:20:37.184Z,21.58
2018-06-08T00:21:45.829Z,21.6
2018-06-08T00:22:54.484Z,21.65
2018-06-08T00:24:03.129Z,21.63
2018-06-08T00:25:11.786Z,21.6
2018-06-08T00:26:20.433Z,21.7
2018-06-08T00:27:29.088Z,21.65
2018-06-08T00:28:37.735Z,21.63
2018-06-08T00:29:46.393Z,21.63
2018-06-08T00:30:55.043Z,21.63
2018-06-08T00:32:03.696Z,21.63
2018-06-08T00:33:12.347Z,21.63
2018-06-08T00:34:20.998Z,21.66
2018-06-08T00:35:29.652Z,21.59
2018-06-08T00:36:38.298Z,21.56
2018-06-08T00:37:46.947Z,21.59
2018-06-08T00:38:55.597Z,21.53
2018-06-08T00:40:04.265Z,21.54
2018-06-08T00:41:12.900Z,21.5
2018-06-08T00:42:21.552Z,21.48
2018-06-08T00:43:30.201Z,21.53
2018-06-08T00:44:38.859Z,21.5
2018-06-08T00:45:47.765Z,21.45
2018-06-08T00:46:56.416Z,21.48
2018-06-08T00:48:05.065Z,21.37
2018-06-08T00:49:13.722Z,21.37
2018-06-08T00:50:22.637Z,21.37
2018-06-08T00:51:31.288Z,21.38
2018-06-08T00:52:39.935Z,21.37
2018-06-08T00:53:48.585Z,21.44
2018-06-08T00:54:57.237Z,21.43
2018-06-08T00:56:05.887Z,21.37
2018-06-08T00:57:14.542Z,21.38
2018-06-08T00:58:23.186Z,21.37
2018-06-08T00:59:31.841Z,21.38
2018-06-08T01:00:40.491Z,21.33
2018-06-08T01:01:49.146Z,21.32
2018-06-08T01:02:58.056Z,21.33
2018-06-08T01:04:06.703Z,21.29
2018-06-08T01:05:15.354Z,21.25
2018-06-08T01:06:24.002Z,21.29
2018-06-08T01:07:32.660Z,21.32
2018-06-08T01:08:41.304Z,21.25
2018-06-08T01:09:50.217Z,21.23
2018-06-08T01:10:58.864Z,21.25
2018-06-08T01:12:07.775Z,21.22
2018-06-08T01:13:16.432Z,21.26
2018-06-08T01:14:25.086Z,21.3
2018-06-08T01:15:33.736Z,21.23
2018-06-08T01:16:42.385Z,21.2
2018-06-08T01:17:51.039Z,21.15
2018-06-08T01:18:59.695Z,21.22
2018-06-08T01:20:08.355Z,21.19
2018-06-08T01:21:16.999Z,21.2
2018-06-08T01:22:25.654Z,21.2
2018-06-08T01:23:34.301Z,21.14
2018-06-08T01:24:42.956Z,21.2
2018-06-08T01:25:51.861Z,21.11
2018-06-08T01:27:00.779Z,21.1
2018-06-08T01:28:09.429Z,21.04
2018-06-08T01:29:18.085Z,21.04
2018-06-08T01:30:26.738Z,21.07
2018-06-08T01:31:35.641Z,21.03
2018-06-08T01:32:44.291Z,21.1
2018-06-08T01:33:52.941Z,21.03
2018-06-08T01:35:01.595Z,21.01
2018-06-08T01:36:10.505Z,20.88
2018-06-08T01:37:19.155Z,20.95
2018-06-08T01:38:27.806Z,20.88
2018-06-08T01:39:36.730Z,20.92
2018-06-08T01:40:45.376Z,20.9
2018-06-08T01:41:54.026Z,20.82
2018-06-08T01:43:02.930Z,20.9
2018-06-08T01:44:11.584Z,20.89
2018-06-08T01:45:20.232Z,20.89
2018-06-08T01:46:28.883Z,20.89
2018-06-08T01:47:37.531Z,20.89
2018-06-08T01:48:46.181Z,20.74
2018-06-08T01:49:54.837Z,20.85
2018-06-08T01:51:03.500Z,20.82
2018-06-08T01:52:12.147Z,20.85
2018-06-08T01:53:21.060Z,20.7
2018-06-08T01:54:29.712Z,20.71
2018-06-08T01:55:38.363Z,20.78
2018-06-08T01:56:47.278Z,20.7
2018-06-08T01:57:55.928Z,20.71
2018-06-08T01:59:04.582Z,20.6
2018-06-08T02:00:13.230Z,20.67
2018-06-08T02:01:21.884Z,20.6
2018-06-08T02:02:30.525Z,20.6
2018-06-08T02:03:39.177Z,20.56
2018-06-08T02:04:47.832Z,20.6
2018-06-08T02:05:56.743Z,20.53
2018-06-08T02:07:05.395Z,20.52
2018-06-08T02:08:14.035Z,20.63
2018-06-08T02:09:22.689Z,20.56
2018-06-08T02:10:31.337Z,20.56
2018-06-08T02:11:39.996Z,20.5
2018-06-08T02:12:48.636Z,20.5
2018-06-08T02:13:57.291Z,20.52
2018-06-08T02:15:05.941Z,20.52
2018-06-08T02:16:15.141Z,20.48
2018-06-08T02:17:24.041Z,20.44
2018-06-08T02:18:32.693Z,20.42
2018-06-08T02:19:41.342Z,20.34
2018-06-08T02:20:50.004Z,20.44
2018-06-08T02:21:58.652Z,20.39
2018-06-08T02:23:07.300Z,20.34
2018-06-08T02:24:15.944Z,20.29
2018-06-08T02:25:24.591Z,20.27
2018-06-08T02:26:33.252Z,20.29
2018-06-08T02:27:41.895Z,20.22
2018-06-08T02:28:50.547Z,20.26
2018-06-08T02:29:59.185Z,20.18
2018-06-08T02:31:07.846Z,20.19
2018-06-08T02:32:16.498Z,20.22
2018-06-08T02:33:25.431Z,20.19
2018-06-08T02:34:34.063Z,20.15
2018-06-08T02:35:42.722Z,20.15
2018-06-08T02:36:51.376Z,20.15
2018-06-08T02:38:00.035Z,20.22
2018-06-08T02:39:08.941Z,20.14
2018-06-08T02:40:17.599Z,20.11
2018-06-08T02:41:26.257Z,20.11
2018-06-08T02:42:34.910Z,20.12
2018-06-08T02:43:43.560Z,20.17
2018-06-08T02:44:52.206Z,20.21
2018-06-08T02:46:00.860Z,20.14
2018-06-08T02:47:09.508Z,20.21
2018-06-08T02:48:18.192Z,20.1
2018-06-08T02:49:26.809Z,20.1
2018-06-08T02:50:35.742Z,20.1
2018-06-08T02:51:44.388Z,20.14
2018-06-08T02:52:53.054Z,20.14
2018-06-08T02:54:02.481Z,20.1
2018-06-08T02:55:11.148Z,20.11
2018-06-08T02:56:20.055Z,19.99
2018-06-08T02:57:28.717Z,20.08
2018-06-08T02:58:37.635Z,19.99
2018-06-08T02:59:46.283Z,20.07
2018-06-08T03:00:54.976Z,20.04
2018-06-08T03:02:04.207Z,20.03
2018-06-08T03:03:13.393Z,20.04
2018-06-08T03:04:22.307Z,20.04
2018-06-08T03:05:30.955Z,20.07
2018-06-08T03:06:39.604Z,20.04
2018-06-08T03:07:48.259Z,20.02
2018-06-08T03:08:56.909Z,20.14
2018-06-08T03:10:05.568Z,20.02
2018-06-08T03:11:14.219Z,20.15
2018-06-08T03:12:22.882Z,20.1
2018-06-08T03:13:31.842Z,20.1
2018-06-08T03:14:40.770Z,20.14
2018-06-08T03:15:49.415Z,20.11
2018-06-08T03:16:58.068Z,20.1
2018-06-08T03:18:06.987Z,20.1
2018-06-08T03:19:15.908Z,20.11
2018-06-08T03:20:24.557Z,20.12
2018-06-08T03:21:33.206Z,20.12
2018-06-08T03:22:41.856Z,20.1
2018-06-08T03:23:50.504Z,20.18
2018-06-08T03:24:59.163Z,20.11
2018-06-08T03:26:07.805Z,20.08
2018-06-08T03:27:16.457Z,19.99
2018-06-08T03:28:25.105Z,20.08
2018-06-08T03:29:34.021Z,20.07
2018-06-08T03:30:42.939Z,20.04
2018-06-08T03:31:51.898Z,20.08
2018-06-08T03:33:00.552Z,20.03
2018-06-08T03:34:09.203Z,20.04
2018-06-08T03:35:17.858Z,20.02
2018-06-08T03:36:26.507Z,20.07
2018-06-08T03:37:35.154Z,20.03
2018-06-08T03:38:44.063Z,20.07
2018-06-08T03:39:52.718Z,20.08
2018-06-08T03:41:01.369Z,19.99
2018-06-08T03:42:10.023Z,20.08
2018-06-08T03:43:18.668Z,20.03
2018-06-08T03:44:27.321Z,20.1
2018-06-08T03:45:35.968Z,20.04
2018-06-08T03:46:44.616Z,20.04
2018-06-08T03:47:53.261Z,20.02
2018-06-08T03:49:01.925Z,20.07
2018-06-08T03:50:10.560Z,20.07
2018-06-08T03:51:19.211Z,20.07
2018-06-08T03:52:27.855Z,20.11
2018-06-08T03:53:36.507Z,20.02
2018-06-08T03:54:45.157Z,20.1
2018-06-08T03:55:53.862Z,20.07
2018-06-08T03:57:02.461Z,20.07
2018-06-08T03:58:11.107Z,20.12
2018-06-08T03:59:19.757Z,20.08
2018-06-08T04:00:28.404Z,20.02
2018-06-08T04:01:37.059Z,20.02
2018-06-08T04:02:45.698Z,20
2018-06-08T04:03:54.361Z,20.03
2018-06-08T04:05:02.998Z,19.99
2018-06-08T04:06:11.922Z,20.04
2018-06-08T04:07:20.567Z,20.07
2018-06-08T04:08:29.215Z,20.04
2018-06-08T04:09:38.125Z,20.04
2018-06-08T04:10:47.313Z,20.02
2018-06-08T04:11:55.959Z,20.04
2018-06-08T04:13:04.872Z,20.08
2018-06-08T04:14:13.519Z,20.07
2018-06-08T04:15:22.428Z,20
2018-06-08T04:16:31.093Z,20.03
2018-06-08T04:17:39.736Z,20.04
2018-06-08T04:18:48.394Z,20.03
2018-06-08T04:19:57.033Z,20.07
2018-06-08T04:21:05.696Z,19.96
2018-06-08T04:22:14.340Z,20.04
2018-06-08T04:23:22.995Z,20.1
2018-06-08T04:24:31.634Z,20
2018-06-08T04:25:40.332Z,20.04
2018-06-08T04:26:48.949Z,20
2018-06-08T04:27:57.602Z,20.02
2018-06-08T04:29:06.241Z,20.1
2018-06-08T04:30:14.893Z,20.08
2018-06-08T04:31:23.812Z,20.14
2018-06-08T04:32:32.467Z,20.11
2018-06-08T04:33:41.116Z,20.17
2018-06-08T04:34:49.757Z,20.08
2018-06-08T04:35:58.409Z,20.24
2018-06-08T04:37:07.053Z,20.11
2018-06-08T04:38:15.977Z,20.15
2018-06-08T04:39:24.620Z,20.12
2018-06-08T04:40:33.302Z,20.21
2018-06-08T04:41:41.916Z,20.27
2018-06-08T04:42:50.574Z,20.22
2018-06-08T04:43:59.214Z,20.26
2018-06-08T04:45:07.867Z,20.19
2018-06-08T04:46:16.779Z,20.21
2018-06-08T04:47:25.440Z,20.27
2018-06-08T04:48:34.085Z,20.3
2018-06-08T04:49:42.730Z,20.33
2018-06-08T04:50:51.377Z,20.4
2018-06-08T04:52:00.030Z,20.34
2018-06-08T04:53:08.688Z,20.37
2018-06-08T04:54:17.334Z,20.32
2018-06-08T04:55:25.988Z,20.39
2018-06-08T04:56:34.631Z,20.33
2018-06-08T04:57:43.283Z,20.24
2018-06-08T04:58:51.950Z,20.21
2018-06-08T05:00:00.593Z,20.17
2018-06-08T05:01:09.251Z,20.18
2018-06-08T05:02:17.897Z,20.1
2018-06-08T05:03:26.542Z,20.02
2018-06-08T05:04:35.190Z,20.1
2018-06-08T05:05:43.848Z,20.08
2018-06-08T05:06:52.497Z,20.02
2018-06-08T05:08:01.406Z,19.79
2018-06-08T05:09:10.053Z,19.7
2018-06-08T05:10:18.701Z,19.62
2018-06-08T05:11:27.357Z,19.49
2018-06-08T05:12:35.999Z,19.44
2018-06-08T05:13:44.651Z,19.52
2018-06-08T05:14:53.560Z,19.48
2018-06-08T05:16:02.486Z,19.48
2018-06-08T05:17:11.130Z,19.47
2018-06-08T05:18:19.781Z,19.57
2018-06-08T05:19:28.421Z,19.6
2018-06-08T05:20:37.343Z,19.71
2018-06-08T05:21:45.990Z,19.67
2018-06-08T05:22:54.640Z,19.67
2018-06-08T05:24:03.279Z,19.85
2018-06-08T05:25:11.931Z,19.78
2018-06-08T05:26:20.583Z,19.99
2018-06-08T05:27:29.234Z,19.92
2018-06-08T05:28:38.149Z,20.03
2018-06-08T05:29:47.053Z,19.96
2018-06-08T05:30:55.706Z,20.04
2018-06-08T05:32:04.350Z,20.04
2018-06-08T05:33:13.530Z,20.1
2018-06-08T05:34:22.170Z,20.14
2018-06-08T05:35:30.823Z,20.18
2018-06-08T05:36:39.473Z,20.3
2018-06-08T05:37:48.392Z,20.26
2018-06-08T05:38:57.034Z,20.21
2018-06-08T05:40:05.723Z,20.26
2018-06-08T05:41:14.393Z,20.29
2018-06-08T05:42:23.139Z,20.3
2018-06-08T05:43:32.128Z,20.3
2018-06-08T05:44:40.887Z,20.34
2018-06-08T05:45:49.661Z,20.34
2018-06-08T05:46:58.404Z,20.36
2018-06-08T05:48:07.202Z,20.44
2018-06-08T05:49:16.133Z,20.44
2018-06-08T05:50:25.350Z,20.49
2018-06-08T05:51:34.000Z,20.44
2018-06-08T05:52:42.691Z,20.52
2018-06-08T05:53:51.364Z,20.53
2018-06-08T05:55:00.070Z,20.55
2018-06-08T05:56:09.624Z,20.48
2018-06-08T05:57:18.417Z,20.56
2018-06-08T05:58:27.090Z,20.53
2018-06-08T05:59:36.078Z,20.52
2018-06-08T06:00:44.860Z,20.53
2018-06-08T06:01:53.570Z,20.6
2018-06-08T06:03:02.263Z,20.59
2018-06-08T06:04:11.018Z,20.64
2018-06-08T06:05:19.747Z,20.63
2018-06-08T06:06:28.396Z,20.71
2018-06-08T06:07:37.046Z,20.75
2018-06-08T06:08:45.809Z,20.7
2018-06-08T06:09:54.764Z,20.73
2018-06-08T06:11:03.788Z,20.7
2018-06-08T06:12:12.579Z,20.73
2018-06-08T06:13:21.246Z,20.66
2018-06-08T06:14:29.919Z,20.67
2018-06-08T06:15:38.662Z,20.77
2018-06-08T06:16:47.938Z,20.74
2018-06-08T06:17:57.125Z,20.83
2018-06-08T06:19:06.098Z,20.73
2018-06-08T06:20:14.798Z,20.82
2018-06-08T06:21:23.853Z,20.78
2018-06-08T06:22:32.689Z,20.88
2018-06-08T06:23:41.712Z,20.9
2018-06-08T06:24:50.571Z,20.9
2018-06-08T06:25:59.292Z,20.95
2018-06-08T06:27:08.046Z,21.04
2018-06-08T06:28:16.802Z,21.04
2018-06-08T06:29:25.558Z,21.07
2018-06-08T06:30:34.855Z,21.08
2018-06-08T06:31:43.511Z,21.11
2018-06-08T06:33:21.964Z,21.07
2018-06-08T06:34:30.685Z,21.19
2018-06-08T06:35:39.473Z,21.22
2018-06-08T06:36:48.262Z,21.28
2018-06-08T06:37:57.541Z,21.28
2018-06-08T06:39:06.327Z,21.28
2018-06-08T06:40:15.309Z,21.25
2018-06-08T06:41:24.099Z,21.32
2018-06-08T06:42:32.929Z,21.38
2018-06-08T06:43:42.399Z,21.4
2018-06-08T06:44:51.335Z,21.41
2018-06-08T06:45:59.981Z,21.33
2018-06-08T06:47:08.819Z,21.5
2018-06-08T06:48:18.081Z,21.43
2018-06-08T06:49:27.071Z,21.53
2018-06-08T06:50:35.844Z,21.54
2018-06-08T06:51:44.587Z,21.59
2018-06-08T06:52:53.244Z,21.56
2018-06-08T06:54:01.893Z,21.59
2018-06-08T06:55:10.551Z,21.66
2018-06-08T06:56:19.459Z,21.77
2018-06-08T06:57:28.104Z,21.84
2018-06-08T06:58:36.766Z,21.84
2018-06-08T06:59:45.405Z,21.94
2018-06-08T07:00:54.063Z,21.81
2018-06-08T07:02:02.708Z,22.03
2018-06-08T07:03:11.368Z,22
2018-06-08T07:04:20.048Z,22.04
2018-06-08T07:05:28.929Z,22.12
2018-06-08T07:06:37.838Z,22.1
2018-06-08T07:07:47.300Z,22.08
2018-06-08T07:08:56.212Z,22.14
2018-06-08T07:10:04.862Z,22.15
2018-06-08T07:11:13.772Z,22.07
2018-06-08T07:12:22.418Z,22.21
2018-06-08T07:13:31.080Z,22.08
2018-06-08T07:14:39.730Z,22.16
2018-06-08T07:15:48.385Z,22.16
2018-06-08T07:16:57.029Z,22.14
2018-06-08T07:18:05.694Z,22.14
2018-06-08T07:19:14.339Z,22.1
2018-06-08T07:20:22.996Z,22.16
2018-06-08T07:21:31.636Z,22.18
2018-06-08T07:22:40.328Z,22.18
2018-06-08T07:23:49.247Z,22.15
2018-06-08T07:24:57.903Z,22.16
2018-06-08T07:26:06.815Z,22.19
2018-06-08T07:27:15.459Z,22.16
2018-06-08T07:28:24.115Z,22.21
2018-06-08T07:29:32.770Z,22.18
2018-06-08T07:30:41.421Z,22.18
2018-06-08T07:31:50.178Z,22.16
2018-06-08T07:32:58.719Z,22.18
2018-06-08T07:34:07.365Z,22.16
2018-06-08T07:35:16.030Z,22.3
2018-06-08T07:36:24.668Z,22.34
2018-06-08T07:37:33.335Z,22.38
2018-06-08T07:38:42.237Z,22.37
2018-06-08T07:39:50.936Z,22.38
2018-06-08T07:40:59.538Z,22.33
2018-06-08T07:42:08.196Z,22.4
2018-06-08T07:43:16.844Z,22.41
2018-06-08T07:44:25.506Z,22.37
2018-06-08T07:45:34.156Z,22.4
2018-06-08T07:46:42.860Z,22.43
2018-06-08T07:47:51.453Z,22.46
2018-06-08T07:49:00.101Z,22.43
2018-06-08T07:50:08.763Z,22.4
2018-06-08T07:51:17.417Z,22.44
2018-06-08T07:52:26.331Z,22.44
2018-06-08T07:53:34.980Z,22.41
2018-06-08T07:54:43.637Z,22.41
2018-06-08T07:55:52.555Z,22.58
2018-06-08T07:57:01.529Z,22.55
2018-06-08T07:58:10.178Z,22.56
2018-06-08T07:59:18.834Z,22.73
2018-06-08T08:00:27.523Z,22.7
2018-06-08T08:01:36.178Z,22.73
2018-06-08T08:02:45.104Z,22.68
2018-06-08T08:03:53.763Z,22.61
2018-06-08T08:05:02.420Z,22.65
2018-06-08T08:06:11.077Z,22.68
2018-06-08T08:07:19.730Z,22.73
2018-06-08T08:08:28.909Z,22.63
2018-06-08T08:09:39.544Z,22.68
2018-06-08T08:10:48.207Z,22.62
2018-06-08T08:11:56.862Z,22.55
2018-06-08T08:13:05.512Z,22.65
2018-06-08T08:14:14.431Z,22.7
2018-06-08T08:15:23.091Z,22.63
2018-06-08T08:16:32.009Z,22.68
2018-06-08T08:17:40.656Z,22.61
2018-06-08T08:18:49.307Z,22.62
2018-06-08T08:19:57.959Z,22.74
2018-06-08T08:21:06.616Z,22.71
2018-06-08T08:22:15.263Z,22.8
2018-06-08T08:23:23.914Z,22.76
2018-06-08T08:24:32.562Z,22.73
2018-06-08T08:25:41.222Z,22.74
2018-06-08T08:26:49.871Z,22.78
2018-06-08T08:27:58.785Z,22.74
2018-06-08T08:29:07.432Z,22.73
2018-06-08T08:30:16.080Z,22.55
2018-06-08T08:31:24.735Z,22.61
2018-06-08T08:32:33.388Z,22.63
2018-06-08T08:33:42.039Z,22.71
2018-06-08T08:34:50.687Z,22.65
2018-06-08T08:35:59.342Z,22.65
2018-06-08T08:37:07.992Z,22.7
2018-06-08T08:38:16.913Z,22.56
2018-06-08T08:39:25.561Z,22.65
2018-06-08T08:40:34.213Z,22.56
2018-06-08T08:41:42.865Z,22.59
2018-06-08T08:42:51.518Z,22.59
2018-06-08T08:44:00.171Z,22.53
2018-06-08T08:45:09.084Z,22.55
2018-06-08T08:46:18.001Z,22.59
2018-06-08T08:47:26.651Z,22.56
2018-06-08T08:48:35.308Z,22.68
2018-06-08T08:49:43.955Z,22.55
2018-06-08T08:50:52.607Z,22.61
2018-06-08T08:52:01.322Z,22.61
2018-06-08T08:53:10.675Z,22.58
2018-06-08T08:54:19.602Z,22.51
2018-06-08T08:55:28.254Z,22.52
2018-06-08T08:56:36.908Z,22.59
2018-06-08T08:57:45.824Z,22.55
2018-06-08T08:58:54.477Z,22.59
2018-06-08T09:00:03.128Z,22.58
2018-06-08T09:01:11.785Z,22.59
2018-06-08T09:02:20.440Z,22.73
2018-06-08T09:03:29.087Z,22.74
2018-06-08T09:04:38.003Z,22.73
2018-06-08T09:05:46.656Z,22.84
2018-06-08T09:06:55.311Z,22.84
2018-06-08T09:08:03.956Z,22.89
2018-06-08T09:09:12.880Z,22.89
2018-06-08T09:10:21.524Z,22.89
2018-06-08T09:11:30.243Z,22.95
2018-06-08T09:12:38.827Z,23.02
2018-06-08T09:13:47.487Z,23.06
2018-06-08T09:14:56.134Z,23.17
2018-06-08T09:16:04.792Z,23.17
2018-06-08T09:17:13.446Z,23.17
2018-06-08T09:18:22.092Z,23.23
2018-06-08T09:19:30.745Z,23.2
2018-06-08T09:20:39.661Z,23.29
2018-06-08T09:21:48.317Z,23.25
2018-06-08T09:22:56.969Z,23.26
2018-06-08T09:24:05.621Z,23.25
2018-06-08T09:25:14.529Z,23.34
2018-06-08T09:26:23.188Z,23.29
2018-06-08T09:27:31.857Z,23.36
2018-06-08T09:28:40.508Z,23.28
2018-06-08T09:29:49.163Z,23.4
2018-06-08T09:30:57.870Z,23.37
2018-06-08T09:32:06.520Z,23.45
2018-06-08T09:33:15.228Z,23.49
2018-06-08T09:34:23.968Z,23.51
2018-06-08T09:35:32.697Z,23.62
2018-06-08T09:36:41.348Z,23.64
2018-06-08T09:37:50.285Z,23.56
2018-06-08T09:38:59.016Z,23.62
2018-06-08T09:40:07.667Z,23.54
2018-06-08T09:41:16.616Z,23.62
2018-06-08T09:42:25.290Z,23.66
2018-06-08T09:43:34.292Z,23.62
2018-06-08T09:44:43.210Z,23.69
2018-06-08T09:45:51.856Z,23.64
2018-06-08T09:47:00.511Z,23.73
2018-06-08T09:48:09.172Z,23.54
2018-06-08T09:49:18.085Z,23.59
2018-06-08T09:50:26.740Z,23.56
2018-06-08T09:51:35.389Z,23.7
2018-06-08T09:52:44.051Z,23.7
2018-06-08T09:53:52.996Z,23.69
2018-06-08T09:55:01.653Z,23.69
2018-06-08T09:56:10.369Z,23.63
2018-06-08T09:57:19.012Z,23.55
2018-06-08T09:58:27.674Z,23.59
2018-06-08T09:59:36.322Z,23.56
2018-06-08T10:00:44.979Z,23.48
2018-06-08T10:01:53.888Z,23.54
2018-06-08T10:03:02.553Z,23.49
2018-06-08T10:04:11.214Z,23.49
2018-06-08T10:05:19.927Z,23.44
2018-06-08T10:06:28.514Z,23.37
2018-06-08T10:07:37.176Z,23.32
2018-06-08T10:08:46.084Z,23.29
2018-06-08T10:09:54.747Z,23.33
2018-06-08T10:11:03.390Z,23.26
2018-06-08T10:12:12.046Z,23.25
2018-06-08T10:13:20.702Z,23.32
2018-06-08T10:14:29.357Z,23.2
2018-06-08T10:15:38.282Z,23.17
2018-06-08T10:16:47.304Z,23.11
2018-06-08T10:17:55.960Z,23.1
2018-06-08T10:19:04.823Z,23.08
2018-06-08T10:20:13.600Z,23.13
2018-06-08T10:21:22.504Z,23.11
2018-06-08T10:22:31.160Z,22.93
2018-06-08T10:23:39.808Z,23.01
2018-06-08T10:24:48.746Z,22.96
2018-06-08T10:25:57.428Z,22.96
2018-06-08T10:27:06.116Z,22.92
2018-06-08T10:28:15.090Z,22.86
2018-06-08T10:29:24.019Z,22.84
2018-06-08T10:30:32.673Z,22.91
2018-06-08T10:31:41.592Z,22.81
2018-06-08T10:32:50.249Z,22.84
2018-06-08T10:33:58.915Z,22.74
2018-06-08T10:35:07.559Z,22.76
2018-06-08T10:36:16.205Z,22.68
2018-06-08T10:37:24.864Z,22.68
2018-06-08T10:38:33.894Z,22.71
2018-06-08T10:39:42.621Z,22.58
2018-06-08T10:40:51.269Z,22.59
2018-06-08T10:41:59.928Z,22.56
2018-06-08T10:43:08.572Z,22.62
2018-06-08T10:44:17.502Z,22.61
2018-06-08T10:45:26.150Z,22.55
2018-06-08T10:46:34.825Z,22.58
2018-06-08T10:47:43.742Z,22.58
2018-06-08T10:48:52.398Z,22.52
2018-06-08T10:50:01.059Z,22.56
2018-06-08T10:51:09.712Z,22.51
2018-06-08T10:52:18.639Z,22.56
2018-06-08T10:53:27.553Z,22.51
2018-06-08T10:54:36.204Z,22.52
2018-06-08T10:55:45.124Z,22.47
2018-06-08T10:56:53.784Z,22.41
2018-06-08T10:58:02.693Z,22.38
2018-06-08T10:59:11.606Z,22.31
2018-06-08T11:00:20.257Z,22.25
2018-06-08T11:01:28.913Z,22.21
2018-06-08T11:02:37.564Z,22.18
2018-06-08T11:03:46.214Z,22.16
2018-06-08T11:04:54.869Z,22.16
2018-06-08T11:06:03.587Z,22.07
2018-06-08T11:07:12.265Z,22.08
2018-06-08T11:08:20.974Z,22.03
2018-06-08T11:09:29.624Z,22.01
2018-06-08T11:10:38.277Z,22.01
2018-06-08T11:11:47.727Z,22.03
2018-06-08T11:12:56.375Z,21.96
2018-06-08T11:14:05.085Z,22
2018-06-08T11:15:13.730Z,21.85
2018-06-08T11:16:22.386Z,21.88
2018-06-08T11:17:31.046Z,21.84
2018-06-08T11:18:39.966Z,21.8
2018-06-08T11:19:48.899Z,21.75
2018-06-08T11:20:57.533Z,21.66
2018-06-08T11:22:06.455Z,21.69
2018-06-08T11:23:15.107Z,21.65
2018-06-08T11:24:23.754Z,21.66
2018-06-08T11:25:32.408Z,21.54
2018-06-08T11:26:41.058Z,21.56
2018-06-08T11:27:49.718Z,21.48
2018-06-08T11:28:58.648Z,21.38
2018-06-08T11:30:07.292Z,21.41
2018-06-08T11:31:15.945Z,21.43
2018-06-08T11:32:24.596Z,21.43
2018-06-08T11:33:33.252Z,21.29
2018-06-08T11:34:41.898Z,21.25
2018-06-08T11:35:50.549Z,21.23
2018-06-08T11:36:59.200Z,21.23
2018-06-08T11:38:07.856Z,21.28
2018-06-08T11:39:16.539Z,21.07
2018-06-08T11:40:25.515Z,21.01
2018-06-08T11:41:34.164Z,20.98
2018-06-08T11:42:42.819Z,20.98
2018-06-08T11:43:51.460Z,20.98
2018-06-08T11:45:00.382Z,20.86
2018-06-08T11:46:09.030Z,20.89
2018-06-08T11:47:17.678Z,20.88
2018-06-08T11:48:26.331Z,20.88
2018-06-08T11:49:35.246Z,20.9
2018-06-08T11:50:43.900Z,20.92
2018-06-08T11:51:52.542Z,20.83
2018-06-08T11:53:01.201Z,20.83
2018-06-08T11:54:10.111Z,20.89
2018-06-08T11:55:18.769Z,20.68
2018-06-08T11:56:27.409Z,20.73
2018-06-08T11:57:36.071Z,20.64
2018-06-08T11:58:44.717Z,20.53
2018-06-08T11:59:53.371Z,20.56
2018-06-08T12:01:02.011Z,20.46
2018-06-08T12:02:10.925Z,20.5
2018-06-08T12:03:19.573Z,20.44
2018-06-08T12:04:28.225Z,20.36
2018-06-08T12:05:37.142Z,20.37
2018-06-08T12:06:45.785Z,20.39
2018-06-08T12:07:54.717Z,20.3
2018-06-08T12:09:03.759Z,20.29
2018-06-08T12:10:12.352Z,20.24
2018-06-08T12:11:20.989Z,20.24
2018-06-08T12:12:29.644Z,20.15
2018-06-08T12:13:38.288Z,20.19
2018-06-08T12:14:46.944Z,20.02
2018-06-08T12:15:55.585Z,20.08
2018-06-08T12:17:04.247Z,20.03
2018-06-08T12:18:12.887Z,20.03
2018-06-08T12:19:21.545Z,19.93
2018-06-08T12:20:30.194Z,19.9
2018-06-08T12:21:39.100Z,19.96
2018-06-08T12:22:48.010Z,19.75
2018-06-08T12:23:56.657Z,19.75
2018-06-08T12:25:05.845Z,19.78
2018-06-08T12:26:14.747Z,19.89
2018-06-08T12:27:23.403Z,19.87
2018-06-08T12:28:32.039Z,19.87
2018-06-08T12:29:40.694Z,19.74
2018-06-08T12:30:49.410Z,19.85
2018-06-08T12:31:58.258Z,19.79
2018-06-08T12:33:06.900Z,19.92
2018-06-08T12:34:15.556Z,19.97
2018-06-08T12:35:24.203Z,19.85
2018-06-08T12:36:33.113Z,19.85
2018-06-08T12:37:42.019Z,19.85
2018-06-08T12:38:50.672Z,19.84
2018-06-08T12:39:59.325Z,19.89
2018-06-08T12:41:08.250Z,19.94
2018-06-08T12:42:16.898Z,19.92
2018-06-08T12:43:25.538Z,19.92
2018-06-08T12:44:34.197Z,19.94
2018-06-08T12:45:42.836Z,19.96
2018-06-08T12:46:51.493Z,19.93
2018-06-08T12:48:00.139Z,19.96
2018-06-08T12:49:08.791Z,19.96
2018-06-08T12:50:17.445Z,19.99
2018-06-08T12:51:26.089Z,19.93
2018-06-08T12:52:34.742Z,19.97
2018-06-08T12:53:43.654Z,19.94
2018-06-08T12:54:52.303Z,19.85
2018-06-08T12:56:00.951Z,19.81
2018-06-08T12:57:09.604Z,19.93
2018-06-08T12:58:18.254Z,19.97
2018-06-08T12:59:26.905Z,19.96
2018-06-08T13:00:35.555Z,19.94
2018-06-08T13:01:44.198Z,19.96
2018-06-08T13:02:52.853Z,19.81
2018-06-08T13:04:01.497Z,19.99
2018-06-08T13:05:10.420Z,19.99
2018-06-08T13:06:19.061Z,19.93
2018-06-08T13:07:27.715Z,19.94
2018-06-08T13:08:36.360Z,19.92
2018-06-08T13:09:45.023Z,19.97
2018-06-08T13:10:54.275Z,19.92
2018-06-08T13:12:02.926Z,19.84
2018-06-08T13:13:11.572Z,19.89
2018-06-08T13:14:20.230Z,19.85
2018-06-08T13:15:28.880Z,19.96
2018-06-08T13:16:37.524Z,19.96
2018-06-08T13:17:46.172Z,19.85
2018-06-08T13:18:54.820Z,19.84
2018-06-08T13:20:03.478Z,19.82
2018-06-08T13:21:12.142Z,19.85
2018-06-08T13:22:21.345Z,19.9
2018-06-08T13:23:29.979Z,19.87
2018-06-08T13:24:38.638Z,19.89
2018-06-08T13:25:47.284Z,19.89
2018-06-08T13:26:55.938Z,19.94
2018-06-08T13:28:04.578Z,19.97
2018-06-08T13:29:13.236Z,20.07
2018-06-08T13:30:21.886Z,20.12
2018-06-08T13:31:30.539Z,20.18
2018-06-08T13:32:39.180Z,20.17
2018-06-08T13:33:47.835Z,20.32
2018-06-08T13:34:56.765Z,20.29
2018-06-08T13:36:05.420Z,20.49
2018-06-08T13:37:14.073Z,20.49
2018-06-08T13:38:22.711Z,20.56
2018-06-08T13:39:31.690Z,20.59
2018-06-08T13:40:40.288Z,20.71
2018-06-08T13:41:48.947Z,20.82
2018-06-08T13:42:57.588Z,20.73
2018-06-08T13:44:06.513Z,20.78
2018-06-08T13:45:15.185Z,20.85
2018-06-08T13:46:23.827Z,20.9
2018-06-08T13:47:32.468Z,21
2018-06-08T13:48:41.381Z,21.08
2018-06-08T13:49:50.029Z,21.29
2018-06-08T13:50:58.942Z,21.29
2018-06-08T13:52:07.591Z,21.17
2018-06-08T13:53:16.243Z,21.23
2018-06-08T13:54:25.158Z,21.29
2018-06-08T13:55:34.073Z,21.45
2018-06-08T13:56:42.722Z,21.4
2018-06-08T13:57:51.373Z,21.43
2018-06-08T13:59:00.026Z,21.43
2018-06-08T14:00:08.672Z,21.59
2018-06-08T14:01:17.327Z,21.58
2018-06-08T14:02:25.977Z,21.59
2018-06-08T14:03:34.629Z,21.58
2018-06-08T14:04:43.538Z,21.59
2018-06-08T14:05:52.199Z,21.69
2018-06-08T14:07:00.847Z,21.84
2018-06-08T14:08:09.500Z,21.84
2018-06-08T14:09:18.147Z,22.08
2018-06-08T14:10:27.327Z,22.14
2018-06-08T14:11:35.981Z,22.21
2018-06-08T14:12:44.632Z,22.3
2018-06-08T14:13:53.285Z,22.3
2018-06-08T14:15:01.935Z,22.34
2018-06-08T14:16:10.851Z,22.3
2018-06-08T14:17:19.775Z,22.37
2018-06-08T14:18:28.699Z,22.47
2018-06-08T14:19:37.343Z,22.49
2018-06-08T14:20:45.994Z,22.62
2018-06-08T14:21:54.645Z,22.74
2018-06-08T14:23:03.303Z,22.73
2018-06-08T14:24:12.214Z,22.86
2018-06-08T14:25:20.867Z,22.89
2018-06-08T14:26:29.519Z,22.91
2018-06-08T14:27:38.203Z,23.06
2018-06-08T14:28:46.826Z,23.13
2018-06-08T14:29:55.476Z,23.08
2018-06-08T14:31:04.127Z,23.2
2018-06-08T14:32:12.772Z,23.25
2018-06-08T14:33:21.695Z,23.28
2018-06-08T14:34:30.344Z,23.33
2018-06-08T14:35:38.997Z,23.21
2018-06-08T14:36:47.648Z,23.26
2018-06-08T14:37:56.308Z,23.32
2018-06-08T14:39:04.957Z,23.14
2018-06-08T14:40:13.610Z,23.16
2018-06-08T14:41:22.258Z,23.07
2018-06-08T14:42:31.182Z,23.02
2018-06-08T14:43:39.835Z,22.96
2018-06-08T14:44:48.484Z,22.99
2018-06-08T14:45:57.144Z,22.86
2018-06-08T14:47:05.792Z,22.83
2018-06-08T14:48:14.448Z,22.86
2018-06-08T14:49:23.360Z,22.86
2018-06-08T14:50:32.272Z,22.83